Bruce Mcallister — WDD5894 — position and weather

sailwx.info

Track history (hours):
 
Tides and Currents Weather Stations Pressure Air Temp Water Temp Dewpoint Dewpoint Depression Visibility Wind Speed Wind Dir Waves Ship Positions

Bruce Mcallister

Owner: McAllister Towing & Transportation Company Inc., Staten Island, NY. More information available from US FCC via Universal Licensing System and Coast Guard Vessel Documentation Center.

Last reported at 2017-Nov-10 18:29 UTC. Time now 2017-Nov-18 19:31 UTC.
Position N 40°38' W 074°10'.
Warning: this ship's position is 8 days out of date.

Length 33 m; draft 4.9 m.

Type: Tug. MMSI: 367165430.

Date/timePositionNaut miles runAvg speedWind from/ knotsBaromVisibWave heightAir tempDewpointWater temp
2017-Nov-10 18:29N 40°38' W 074°10'0 0.0
2017-Nov-10 18:00N 40°38' W 074°10'0 0.0
2017-Nov-10 17:30N 40°38' W 074°10'0 0.0
2017-Nov-10 17:00N 40°38' W 074°10'0 0.0
2017-Nov-10 16:30N 40°38' W 074°10'0 0.0
2017-Nov-10 16:00N 40°38' W 074°10'0 0.0
2017-Nov-10 15:31N 40°38' W 074°10'0 0.0
2017-Nov-10 15:00N 40°38' W 074°10'0 0.0
2017-Nov-10 14:30N 40°38' W 074°10'0 0.0
2017-Nov-10 14:00N 40°38' W 074°10'0 0.0
2017-Nov-10 13:30N 40°38' W 074°10'0 0.1
2017-Nov-10 13:00N 40°38' W 074°10'0 0.0
2017-Nov-10 12:30N 40°38' W 074°10'0 0.0
2017-Nov-10 12:00N 40°38' W 074°10'1 2.3
2017-Nov-10 11:30N 40°39' W 074°11'2 5.0
2017-Nov-10 11:00N 40°39' W 074°08'3 6.5
2017-Nov-10 10:30N 40°39' W 074°04'1 2.5
2017-Nov-10 10:01N 40°38' W 074°03'4 8.4
2017-Nov-10 09:30N 40°38' W 074°09'1 1.3
2017-Nov-10 09:01N 40°39' W 074°08'2 3.6
2017-Nov-10 08:30N 40°39' W 074°05'3 6.8
2017-Nov-10 08:00N 40°38' W 074°10'0 0.0
2017-Nov-10 07:31N 40°38' W 074°10'0 0.0
2017-Nov-10 07:00N 40°38' W 074°10'0 0.0
2017-Nov-10 06:31N 40°38' W 074°10'0 0.0
2017-Nov-10 06:00N 40°38' W 074°10'0 0.0
2017-Nov-10 05:30N 40°38' W 074°10'0 0.0
2017-Nov-10 05:00N 40°38' W 074°10'0 0.0
2017-Nov-10 04:30N 40°38' W 074°10'0 0.0
2017-Nov-10 04:01N 40°38' W 074°10'0 0.0
2017-Nov-10 03:30N 40°38' W 074°10'0 0.0
2017-Nov-10 03:00N 40°38' W 074°10'0 0.0
2017-Nov-10 02:30N 40°38' W 074°10'0 0.0
2017-Nov-10 02:00N 40°38' W 074°10'0 0.0
2017-Nov-10 01:30N 40°38' W 074°10'0 0.0
2017-Nov-10 01:00N 40°38' W 074°10'2 4.5
2017-Nov-10 00:30N 40°37' W 074°12'1 1.1
2017-Nov-10 00:00N 40°37' W 074°12'0 0.0
2017-Nov-09 23:31N 40°37' W 074°12'1 1.9
2017-Nov-09 23:00N 40°37' W 074°12'3 5.3
2017-Nov-09 22:31N 40°39' W 074°09'2 4.9
2017-Nov-09 22:01N 40°39' W 074°06'0 0.0
2017-Nov-09 21:30N 40°39' W 074°06'1 1.3
2017-Nov-09 21:00N 40°39' W 074°07'0 0.3
2017-Nov-09 20:29N 40°39' W 074°07'0 0.0
2017-Nov-09 20:00N 40°39' W 074°07'2 5.0
2017-Nov-09 19:30N 40°38' W 074°10'0 0.1
2017-Nov-09 19:00N 40°38' W 074°10'0 0.0
2017-Nov-09 18:30N 40°38' W 074°10'0 0.0
2017-Nov-09 18:00N 40°38' W 074°10'0 0.0
2017-Nov-09 17:30N 40°38' W 074°10'4 7.5
2017-Nov-09 17:01N 40°39' W 074°05'1 2.6
2017-Nov-09 16:31N 40°38' W 074°04'4 7.0
2017-Nov-09 15:56N 40°39' W 074°09'2 3.6
2017-Nov-09 15:30N 40°40' W 074°08'2 4.3
2017-Nov-09 15:00N 40°38' W 074°10'0 0.2
2017-Nov-09 14:30N 40°38' W 074°10'0 0.5
2017-Nov-09 13:59N 40°38' W 074°09'4 9.0
2017-Nov-09 13:31N 40°40' W 074°04'2 4.4
2017-Nov-09 13:00N 40°38' W 074°04'0 0.1
2017-Nov-09 12:30N 40°38' W 074°04'1 1.8
2017-Nov-09 12:00N 40°37' W 074°03'4 8.2
2017-Nov-09 11:30N 40°39' W 074°08'1 2.4
2017-Nov-09 11:00N 40°38' W 074°10'0 0.0
2017-Nov-09 10:30N 40°38' W 074°10'0 0.0
2017-Nov-09 10:00N 40°38' W 074°10'0 0.0
2017-Nov-09 09:30N 40°38' W 074°10'0 0.0
2017-Nov-09 09:00N 40°38' W 074°10'0 0.0
2017-Nov-09 08:30N 40°38' W 074°10'2 3.8
2017-Nov-09 08:01N 40°38' W 074°12'0 0.0
2017-Nov-09 07:27N 40°38' W 074°12'1 3.3
2017-Nov-09 07:00N 40°39' W 074°11'1 1.5
2017-Nov-09 06:31N 40°38' W 074°10'0 0.0
2017-Nov-09 06:00N 40°38' W 074°10'0 0.0
2017-Nov-09 05:30N 40°38' W 074°10'0 0.0
2017-Nov-09 05:00N 40°38' W 074°10'0 0.0
2017-Nov-09 04:31N 40°38' W 074°10'0 0.0
2017-Nov-09 04:00N 40°38' W 074°10'4 7.4
2017-Nov-09 03:30N 40°39' W 074°05'3 5.9
2017-Nov-09 03:00N 40°39' W 074°09'1 2.6
2017-Nov-09 02:31N 40°40' W 074°09'0 0.1
2017-Nov-09 02:01N 40°40' W 074°09'0 0.1
2017-Nov-09 01:31N 40°40' W 074°09'0 0.1
2017-Nov-09 01:01N 40°40' W 074°09'0 0.2
2017-Nov-09 00:31N 40°40' W 074°09'2 3.1
2017-Nov-09 00:00N 40°38' W 074°10'0 0.0
2017-Nov-08 23:30N 40°38' W 074°10'2 3.1
2017-Nov-08 23:01N 40°39' W 074°08'1 2.0
2017-Nov-08 22:30N 40°39' W 074°09'3 5.2
2017-Nov-08 22:00N 40°42' W 074°08'0 0.8
2017-Nov-08 21:30N 40°42' W 074°09'1 2.8
2017-Nov-08 21:01N 40°41' W 074°08'3 5.1
2017-Nov-08 20:31N 40°38' W 074°10'0 0.0
2017-Nov-08 20:00N 40°38' W 074°10'0 0.0
2017-Nov-08 19:30N 40°38' W 074°10'0 0.0
2017-Nov-08 19:00N 40°38' W 074°10'0 0.0
2017-Nov-08 18:31N 40°38' W 074°10'0 0.0
2017-Nov-08 18:00N 40°38' W 074°10'0 0.0
2017-Nov-08 17:30N 40°38' W 074°10'0 0.0
2017-Nov-08 17:01N 40°38' W 074°10'0 0.0
2017-Nov-08 16:30N 40°38' W 074°10'0 0.0
2017-Nov-08 16:00N 40°38' W 074°10'0 0.0
2017-Nov-08 15:30N 40°38' W 074°10'0 0.0
2017-Nov-08 15:00N 40°38' W 074°10'0 0.0
2017-Nov-08 14:30N 40°38' W 074°10'0 0.0
2017-Nov-08 14:00N 40°38' W 074°10'0 0.0
2017-Nov-08 13:30N 40°38' W 074°10'1 2.2
2017-Nov-08 13:01N 40°39' W 074°08'1 1.2
2017-Nov-08 12:31N 40°39' W 074°09'2 3.3
2017-Nov-08 12:01N 40°41' W 074°08'0 0.1
2017-Nov-08 11:30N 40°41' W 074°08'0 0.4
2017-Nov-08 11:01N 40°40' W 074°08'2 3.5
2017-Nov-08 10:31N 40°39' W 074°08'3 7.0
2017-Nov-08 10:01N 40°39' W 074°04'1 2.8
2017-Nov-08 09:31N 40°37' W 074°03'3 5.4
2017-Nov-08 09:00N 40°39' W 074°06'3 5.4
2017-Nov-08 08:30N 40°38' W 074°10'0 0.0
2017-Nov-08 08:00N 40°38' W 074°10'0 0.0
2017-Nov-08 07:31N 40°38' W 074°10'0 0.0
2017-Nov-08 07:00N 40°38' W 074°10'2 4.2
2017-Nov-08 06:30N 40°40' W 074°08'0 0.2
2017-Nov-08 06:01N 40°40' W 074°08'0 0.1
2017-Nov-08 05:30N 40°40' W 074°08'1 2.3
2017-Nov-08 05:00N 40°39' W 074°09'1 1.8
2017-Nov-08 04:30N 40°38' W 074°10'0 0.1
2017-Nov-08 04:00N 40°39' W 074°10'0 0.1
2017-Nov-08 03:30N 40°38' W 074°10'0 0.0
2017-Nov-08 03:00N 40°38' W 074°10'0 0.0
2017-Nov-08 02:30N 40°38' W 074°10'0 0.0
2017-Nov-08 02:00N 40°38' W 074°10'0 0.0
2017-Nov-08 01:30N 40°38' W 074°10'0 0.0
2017-Nov-08 01:00N 40°38' W 074°10'0 0.0
2017-Nov-08 00:30N 40°38' W 074°10'0 0.0
2017-Nov-08 00:00N 40°38' W 074°10'0 0.0
2017-Nov-07 23:30N 40°38' W 074°10'0 0.0
2017-Nov-07 23:00N 40°38' W 074°10'0 0.0
2017-Nov-07 22:30N 40°38' W 074°10'0 0.0
2017-Nov-07 22:00N 40°38' W 074°10'0 0.0
2017-Nov-07 21:30N 40°38' W 074°10'0 0.0
2017-Nov-07 21:00N 40°38' W 074°10'0 0.0
2017-Nov-07 20:30N 40°38' W 074°10'0 0.0
2017-Nov-07 20:00N 40°38' W 074°10'0 0.0
2017-Nov-07 19:30N 40°38' W 074°10'0 0.0
2017-Nov-07 19:00N 40°38' W 074°10'0 0.0
2017-Nov-07 18:30N 40°38' W 074°10'0 0.0
2017-Nov-07 18:00N 40°38' W 074°10'0 0.0
2017-Nov-07 17:30N 40°38' W 074°10'0 0.0
2017-Nov-07 17:00N 40°38' W 074°10'0 0.0
2017-Nov-07 16:30N 40°38' W 074°10'0 0.0
2017-Nov-07 16:00N 40°38' W 074°10'0 0.0
2017-Nov-07 15:30N 40°38' W 074°10'0 0.0
2017-Nov-07 15:01N 40°38' W 074°10'0 0.0
2017-Nov-07 14:30N 40°38' W 074°10'0 0.0
2017-Nov-07 14:00N 40°38' W 074°10'0 0.0
2017-Nov-07 13:30N 40°38' W 074°10'0 0.0
2017-Nov-07 13:01N 40°38' W 074°10'0 0.0
2017-Nov-07 12:30N 40°38' W 074°10'0 0.0
2017-Nov-07 12:01N 40°38' W 074°10'0 0.0
2017-Nov-07 11:30N 40°38' W 074°10'0 0.0
2017-Nov-07 11:00N 40°38' W 074°10'0 0.0
2017-Nov-07 10:30N 40°38' W 074°10'0 0.0
2017-Nov-07 10:00N 40°38' W 074°10'0 0.0
2017-Nov-07 09:30N 40°38' W 074°10'0 0.0
2017-Nov-07 09:00N 40°38' W 074°10'0 0.0
2017-Nov-07 08:30N 40°38' W 074°10'0 0.0
2017-Nov-07 08:01N 40°38' W 074°10'0 0.0
2017-Nov-07 07:30N 40°38' W 074°10'0 0.0
2017-Nov-07 07:00N 40°38' W 074°10'0 0.0
2017-Nov-07 06:31N 40°38' W 074°10'0 0.0
2017-Nov-07 06:00N 40°38' W 074°10'0 0.0
2017-Nov-07 05:30N 40°38' W 074°10'0 0.0
2017-Nov-07 05:00N 40°38' W 074°10'0 0.0
2017-Nov-07 04:30N 40°38' W 074°10'0 0.0
2017-Nov-07 04:00N 40°38' W 074°10'0 0.0
2017-Nov-07 03:30N 40°38' W 074°10'0 0.0
2017-Nov-07 03:00N 40°38' W 074°10'0 0.0
2017-Nov-07 02:30N 40°38' W 074°10'0 0.0
2017-Nov-07 02:01N 40°38' W 074°10'0 0.0
2017-Nov-07 01:30N 40°38' W 074°10'0 0.0
2017-Nov-07 01:00N 40°38' W 074°10'0 0.0
2017-Nov-07 00:31N 40°38' W 074°10'0 0.0
2017-Nov-07 00:00N 40°38' W 074°10'0 0.0
2017-Nov-06 23:30N 40°38' W 074°10'0 0.0
2017-Nov-06 22:59N 40°38' W 074°10'0 0.0
2017-Nov-06 22:30N 40°38' W 074°10'0 0.0
2017-Nov-06 22:01N 40°38' W 074°10'0 0.0
2017-Nov-06 21:31N 40°38' W 074°10'0 0.0
2017-Nov-06 21:00N 40°38' W 074°10'0 0.0
2017-Nov-06 20:31N 40°38' W 074°10'0 0.0
2017-Nov-06 02:30N 40°38' W 074°10'0 0.0
2017-Nov-06 02:00N 40°38' W 074°10'0 0.0
2017-Nov-06 01:30N 40°38' W 074°10'0 0.0
2017-Nov-06 01:01N 40°38' W 074°10'0 0.0
2017-Nov-06 00:30N 40°38' W 074°10'0 0.0
2017-Nov-06 00:00N 40°38' W 074°10'0 0.0
2017-Nov-05 23:30N 40°38' W 074°10'0 0.0
2017-Nov-05 23:00N 40°38' W 074°10'0 0.0
2017-Nov-05 22:31N 40°38' W 074°10'0 0.0
2017-Nov-05 22:00N 40°38' W 074°10'0 0.0
2017-Nov-05 21:30N 40°38' W 074°10'0 0.0
2017-Nov-05 21:00N 40°38' W 074°10'0 0.0
2017-Nov-05 20:30N 40°38' W 074°10'0 0.0
2017-Nov-05 20:00N 40°38' W 074°10'0 0.0
2017-Nov-05 19:30N 40°38' W 074°10'0 0.0
2017-Nov-05 19:00N 40°38' W 074°10'0 0.0
2017-Nov-05 18:30N 40°38' W 074°10'0 0.0
2017-Nov-05 18:00N 40°38' W 074°10'0 0.0
2017-Nov-05 17:31N 40°38' W 074°10'0 0.0
2017-Nov-05 17:00N 40°38' W 074°10'0 0.0
2017-Nov-05 16:31N 40°38' W 074°10'0 0.0
2017-Nov-05 16:00N 40°38' W 074°10'0 0.0
2017-Nov-05 15:30N 40°38' W 074°10'0 0.0
2017-Nov-05 15:00N 40°38' W 074°10'0 0.0
2017-Nov-05 14:30N 40°38' W 074°10'0 0.0
2017-Nov-05 14:00N 40°38' W 074°10'0 0.0
2017-Nov-05 13:31N 40°38' W 074°10'0 0.0
2017-Nov-05 13:01N 40°38' W 074°10'0 0.0
2017-Nov-05 12:30N 40°38' W 074°10'0 0.0
2017-Nov-05 11:59N 40°38' W 074°10'0 0.0
2017-Nov-05 11:30N 40°38' W 074°10'0 0.0
2017-Nov-05 11:01N 40°38' W 074°10'0 0.0
2017-Nov-05 10:30N 40°38' W 074°10'0 0.0
2017-Nov-05 10:00N 40°38' W 074°10'0 0.0
2017-Nov-05 09:30N 40°38' W 074°10'0 0.0
2017-Nov-05 09:00N 40°38' W 074°10'0 0.0
2017-Nov-05 08:30N 40°38' W 074°10'0 0.0
2017-Nov-05 08:00N 40°38' W 074°10'0 0.0
2017-Nov-05 07:30N 40°38' W 074°10'0 0.0
2017-Nov-05 07:01N 40°38' W 074°10'0 0.0
2017-Nov-05 06:30N 40°38' W 074°10'0 0.0
2017-Nov-05 06:00N 40°38' W 074°10'0 0.0
2017-Nov-05 05:31N 40°38' W 074°10'0 0.0
2017-Nov-05 05:00N 40°38' W 074°10'0 0.0
2017-Nov-05 04:30N 40°38' W 074°10'0 0.0
2017-Nov-05 04:00N 40°38' W 074°10'0 0.0
2017-Nov-05 03:31N 40°38' W 074°10'0 0.0
2017-Nov-05 03:01N 40°38' W 074°10'0 0.0
2017-Nov-05 02:30N 40°38' W 074°10'0 0.0
2017-Nov-05 02:00N 40°38' W 074°10'0 0.0
2017-Nov-05 01:30N 40°38' W 074°10'0 0.0
2017-Nov-05 01:00N 40°38' W 074°10'0 0.0
2017-Nov-05 00:30N 40°38' W 074°10'0 0.0
2017-Nov-05 00:00N 40°38' W 074°10'0 0.0
2017-Nov-04 23:30N 40°38' W 074°10'0 0.0
2017-Nov-04 23:00N 40°38' W 074°10'0 0.0
2017-Nov-04 22:30N 40°38' W 074°10'0 0.0
2017-Nov-04 22:00N 40°38' W 074°10'0 0.0
2017-Nov-04 21:30N 40°38' W 074°10'0 0.0
2017-Nov-04 21:00N 40°38' W 074°10'0 0.0
2017-Nov-04 20:30N 40°38' W 074°10'0 0.0
2017-Nov-04 20:00N 40°38' W 074°10'0 0.0
2017-Nov-04 19:30N 40°38' W 074°10'0 0.0
2017-Nov-04 19:00N 40°38' W 074°10'0 0.0
2017-Nov-04 18:30N 40°38' W 074°10'0 0.0
2017-Nov-04 17:59N 40°38' W 074°10'0 0.0
2017-Nov-04 17:30N 40°38' W 074°10'0 0.0
2017-Nov-04 17:00N 40°38' W 074°10'0 0.0
2017-Nov-04 16:30N 40°38' W 074°10'0 0.0
2017-Nov-04 16:00N 40°38' W 074°10'0 0.0
2017-Nov-04 15:30N 40°38' W 074°10'0 0.0
2017-Nov-04 15:00N 40°38' W 074°10'0 0.0
2017-Nov-04 14:30N 40°38' W 074°10'0 0.0
2017-Nov-04 14:00N 40°38' W 074°10'0 0.0
2017-Nov-04 13:30N 40°38' W 074°10'0 0.0
2017-Nov-04 13:00N 40°38' W 074°10'0 0.0
2017-Nov-04 12:30N 40°38' W 074°10'0 0.0
2017-Nov-04 12:00N 40°38' W 074°10'0 0.0
2017-Nov-04 11:30N 40°38' W 074°10'0 0.0
2017-Nov-04 11:00N 40°38' W 074°10'0 0.0
2017-Nov-04 10:31N 40°38' W 074°10'0 0.0
2017-Nov-04 10:00N 40°38' W 074°10'0 0.0
2017-Nov-04 09:30N 40°38' W 074°10'0 0.0
2017-Nov-04 09:01N 40°38' W 074°10'0 0.0
2017-Nov-04 08:30N 40°38' W 074°10'0 0.0
2017-Nov-04 08:00N 40°38' W 074°10'0 0.0
2017-Nov-04 07:30N 40°38' W 074°10'0 0.0
2017-Nov-04 07:00N 40°38' W 074°10'0 0.0
2017-Nov-04 06:31N 40°38' W 074°10'0 0.0
2017-Nov-04 06:00N 40°38' W 074°10'0 0.0
2017-Nov-04 05:30N 40°38' W 074°10'0 0.0
2017-Nov-04 05:00N 40°38' W 074°10'0 0.0
2017-Nov-04 04:29N 40°38' W 074°10'0 0.0
2017-Nov-04 04:00N 40°38' W 074°10'0 0.0
2017-Nov-04 03:30N 40°38' W 074°10'0 0.0
2017-Nov-04 03:00N 40°38' W 074°10'0 0.0
2017-Nov-04 02:31N 40°38' W 074°10'0 0.0
2017-Nov-04 02:00N 40°38' W 074°10'0 0.0
2017-Nov-04 01:31N 40°38' W 074°10'0 0.0
2017-Nov-04 01:01N 40°38' W 074°10'0 0.0
2017-Nov-04 00:30N 40°38' W 074°10'0 0.0
2017-Nov-04 00:00N 40°38' W 074°10'0 0.0
2017-Nov-03 23:30N 40°38' W 074°10'0 0.0
2017-Nov-03 23:01N 40°38' W 074°10'0 0.0
2017-Nov-03 22:30N 40°38' W 074°10'0 0.0
2017-Nov-03 22:00N 40°38' W 074°10'0 0.0
2017-Nov-03 21:30N 40°38' W 074°10'0 0.0
2017-Nov-03 21:00N 40°38' W 074°10'0 0.0
2017-Nov-03 20:30N 40°38' W 074°10'0 0.0
2017-Nov-03 20:00N 40°38' W 074°10'0 0.0
2017-Nov-03 19:29N 40°38' W 074°10'0 0.0
2017-Nov-03 19:00N 40°38' W 074°10'0 0.0
2017-Nov-03 18:30N 40°38' W 074°10'0 0.0
2017-Nov-03 18:00N 40°38' W 074°10'0 0.0
2017-Nov-03 17:30N 40°38' W 074°10'0 0.0
2017-Nov-03 17:00N 40°38' W 074°10'0 0.0
2017-Nov-03 16:31N 40°38' W 074°10'0 0.0
2017-Nov-03 16:00N 40°38' W 074°10'0 0.0
2017-Nov-03 15:30N 40°38' W 074°10'0 0.0
2017-Nov-03 15:00N 40°38' W 074°10'0 0.0
2017-Nov-03 14:30N 40°38' W 074°10'0 0.0
2017-Nov-03 14:01N 40°38' W 074°10'0 0.0
2017-Nov-03 13:30N 40°38' W 074°10'0 0.0
2017-Nov-03 13:00N 40°38' W 074°10'0 0.0
2017-Nov-03 12:30N 40°38' W 074°10'0 0.0
2017-Nov-03 12:00N 40°38' W 074°10'0 0.0
2017-Nov-03 11:30N 40°38' W 074°10'0 0.0
2017-Nov-03 11:00N 40°38' W 074°10'0 0.0
2017-Nov-03 10:30N 40°38' W 074°10'0 0.0
2017-Nov-03 10:00N 40°38' W 074°10'0 0.0
2017-Nov-03 09:30N 40°38' W 074°10'0 0.0
2017-Nov-03 09:00N 40°38' W 074°10'0 0.0
2017-Nov-03 08:30N 40°38' W 074°10'0 0.0
2017-Nov-03 08:00N 40°38' W 074°10'0 0.0
2017-Nov-03 07:30N 40°38' W 074°10'0 0.0
2017-Nov-03 07:00N 40°38' W 074°10'0 0.0
2017-Nov-03 06:30N 40°38' W 074°10'0 0.0
2017-Nov-03 06:00N 40°38' W 074°10'0 0.0
2017-Nov-03 05:30N 40°38' W 074°10'0 0.0
2017-Nov-03 05:00N 40°38' W 074°10'0 0.0
2017-Nov-03 04:30N 40°38' W 074°10'0 0.0
2017-Nov-03 04:00N 40°38' W 074°10'0 0.0
2017-Nov-03 03:30N 40°38' W 074°10'0 0.0
2017-Nov-03 03:00N 40°38' W 074°10'0 0.0
2017-Nov-03 02:31N 40°38' W 074°10'0 0.0
2017-Nov-03 02:00N 40°38' W 074°10'0 0.0
2017-Nov-03 01:31N 40°38' W 074°10'0 0.0
2017-Nov-03 01:00N 40°38' W 074°10'0 0.0
2017-Nov-03 00:30N 40°38' W 074°10'0 0.0
2017-Nov-03 00:00N 40°38' W 074°10'0 0.0
2017-Nov-02 23:30N 40°38' W 074°10'0 0.0
2017-Nov-02 23:00N 40°38' W 074°10'0 0.0
2017-Nov-02 22:30N 40°38' W 074°10'0 0.0
2017-Nov-02 22:00N 40°38' W 074°10'0 0.0
2017-Nov-02 21:30N 40°38' W 074°10'0 0.0
2017-Nov-02 21:00N 40°38' W 074°10'0 0.0
2017-Nov-02 20:31N 40°38' W 074°10'0 0.0
2017-Nov-02 20:00N 40°38' W 074°10'0 0.0
2017-Nov-02 19:30N 40°38' W 074°10'0 0.0
2017-Nov-02 19:00N 40°38' W 074°10'0 0.0
2017-Nov-02 18:30N 40°38' W 074°10'0 0.0
2017-Nov-02 18:00N 40°38' W 074°10'0 0.0
2017-Nov-02 17:30N 40°38' W 074°10'0 0.0
2017-Nov-02 17:00N 40°38' W 074°10'0 0.0
2017-Nov-02 16:31N 40°38' W 074°10'0 0.0
2017-Nov-02 16:00N 40°38' W 074°10'0 0.0
2017-Nov-02 15:30N 40°38' W 074°10'0 0.0
2017-Nov-02 15:01N 40°38' W 074°10'0 0.0
2017-Nov-02 14:31N 40°38' W 074°10'0 0.0
2017-Nov-02 14:00N 40°38' W 074°10'0 0.0
2017-Nov-02 13:30N 40°38' W 074°10'0 0.0
2017-Nov-02 13:01N 40°38' W 074°10'0 0.0
2017-Nov-02 12:30N 40°38' W 074°10'0 0.0
2017-Nov-02 12:01N 40°38' W 074°10'0 0.0
2017-Nov-02 11:30N 40°38' W 074°10'0 0.0
2017-Nov-02 11:00N 40°38' W 074°10'0 0.0
2017-Nov-02 10:30N 40°38' W 074°10'0 0.0
2017-Nov-02 10:00N 40°38' W 074°10'0 0.0
2017-Nov-02 09:30N 40°38' W 074°10'0 0.0
2017-Nov-02 09:01N 40°38' W 074°10'0 0.0
2017-Nov-02 08:30N 40°38' W 074°10'0 0.0
2017-Nov-02 08:00N 40°38' W 074°10'0 0.0
2017-Nov-02 07:30N 40°38' W 074°10'0 0.0
2017-Nov-02 07:00N 40°38' W 074°10'0 0.0
2017-Nov-02 06:30N 40°38' W 074°10'0 0.0
2017-Nov-02 06:00N 40°38' W 074°10'0 0.0
2017-Nov-02 05:30N 40°38' W 074°10'0 0.0
2017-Nov-02 04:59N 40°38' W 074°10'0 0.0
2017-Nov-02 04:30N 40°38' W 074°10'0 0.0
2017-Nov-02 04:00N 40°38' W 074°10'0 0.0
2017-Nov-02 03:30N 40°38' W 074°10'0 0.0
2017-Nov-02 03:00N 40°38' W 074°10'0 0.0
2017-Nov-02 02:31N 40°38' W 074°10'0 0.0
2017-Nov-02 02:00N 40°38' W 074°10'0 0.0
2017-Nov-02 01:30N 40°38' W 074°10'0 0.0
2017-Nov-02 01:00N 40°38' W 074°10'0 0.0
2017-Nov-02 00:30N 40°38' W 074°10'0 0.0
2017-Nov-02 00:00N 40°38' W 074°10'0 0.0
2017-Nov-01 23:30N 40°38' W 074°10'0 0.0
2017-Nov-01 23:00N 40°38' W 074°10'0 0.0
2017-Nov-01 22:31N 40°38' W 074°10'0 0.0
2017-Nov-01 22:00N 40°38' W 074°10'0 0.0
2017-Nov-01 21:31N 40°38' W 074°10'0 0.0
2017-Nov-01 21:00N 40°38' W 074°10'0 0.0
2017-Nov-01 20:30N 40°38' W 074°10'0 0.0
2017-Nov-01 20:00N 40°38' W 074°10'0 0.0
2017-Nov-01 19:30N 40°38' W 074°10'0 0.0
2017-Nov-01 19:01N 40°38' W 074°10'0 0.0
2017-Nov-01 18:30N 40°38' W 074°10'0 0.0
2017-Nov-01 01:59N 40°38' W 074°10'0 0.0
2017-Nov-01 01:29N 40°38' W 074°10'0 0.0
2017-Nov-01 01:00N 40°38' W 074°10'0 0.0
2017-Nov-01 00:31N 40°38' W 074°10'0 0.0
2017-Nov-01 00:00N 40°38' W 074°10'0 0.0
2017-Oct-31 23:30N 40°38' W 074°10'0 0.0
2017-Oct-31 23:00N 40°38' W 074°10'0 0.0
2017-Oct-31 22:31N 40°38' W 074°10'0 0.0
2017-Oct-31 22:00N 40°38' W 074°10'0 0.0
2017-Oct-31 21:31N 40°38' W 074°10'0 0.0
2017-Oct-31 21:01N 40°38' W 074°10'0 0.0
2017-Oct-31 20:31N 40°38' W 074°10'0 0.0
2017-Oct-31 20:00N 40°38' W 074°10'0 0.0
2017-Oct-31 19:31N 40°38' W 074°10'0 0.0
2017-Oct-31 19:01N 40°38' W 074°10'0 0.0
2017-Oct-31 18:31N 40°38' W 074°10'  
Track history (hours):
 
Tides and Currents Weather Stations Pressure Air Temp Water Temp Dewpoint Dewpoint Depression Visibility Wind Speed Wind Dir Waves Ship Positions

Bruce Mcallister

Owner: McAllister Towing & Transportation Company Inc., Staten Island, NY. More information available from US FCC via Universal Licensing System and Coast Guard Vessel Documentation Center.

Last reported at 2017-Nov-10 18:29 UTC. Time now 2017-Nov-18 19:31 UTC.
Position N 40°38' W 074°10'.
Warning: this ship's position is 8 days out of date.

Length 33 m; draft 4.9 m.

Type: Tug. MMSI: 367165430.

Date/timePositionNaut miles runAvg speedWind from/ knotsBaromVisibWave heightAir tempDewpointWater temp
2017-Nov-10 18:29N 40°38' W 074°10'0 0.0
2017-Nov-10 18:00N 40°38' W 074°10'0 0.0
2017-Nov-10 17:30N 40°38' W 074°10'0 0.0
2017-Nov-10 17:00N 40°38' W 074°10'0 0.0
2017-Nov-10 16:30N 40°38' W 074°10'0 0.0
2017-Nov-10 16:00N 40°38' W 074°10'0 0.0
2017-Nov-10 15:31N 40°38' W 074°10'0 0.0
2017-Nov-10 15:00N 40°38' W 074°10'0 0.0
2017-Nov-10 14:30N 40°38' W 074°10'0 0.0
2017-Nov-10 14:00N 40°38' W 074°10'0 0.0
2017-Nov-10 13:30N 40°38' W 074°10'0 0.1
2017-Nov-10 13:00N 40°38' W 074°10'0 0.0
2017-Nov-10 12:30N 40°38' W 074°10'0 0.0
2017-Nov-10 12:00N 40°38' W 074°10'1 2.3
2017-Nov-10 11:30N 40°39' W 074°11'2 5.0
2017-Nov-10 11:00N 40°39' W 074°08'3 6.5
2017-Nov-10 10:30N 40°39' W 074°04'1 2.5
2017-Nov-10 10:01N 40°38' W 074°03'4 8.4
2017-Nov-10 09:30N 40°38' W 074°09'1 1.3
2017-Nov-10 09:01N 40°39' W 074°08'2 3.6
2017-Nov-10 08:30N 40°39' W 074°05'3 6.8
2017-Nov-10 08:00N 40°38' W 074°10'0 0.0
2017-Nov-10 07:31N 40°38' W 074°10'0 0.0
2017-Nov-10 07:00N 40°38' W 074°10'0 0.0
2017-Nov-10 06:31N 40°38' W 074°10'0 0.0
2017-Nov-10 06:00N 40°38' W 074°10'0 0.0
2017-Nov-10 05:30N 40°38' W 074°10'0 0.0
2017-Nov-10 05:00N 40°38' W 074°10'0 0.0
2017-Nov-10 04:30N 40°38' W 074°10'0 0.0
2017-Nov-10 04:01N 40°38' W 074°10'0 0.0
2017-Nov-10 03:30N 40°38' W 074°10'0 0.0
2017-Nov-10 03:00N 40°38' W 074°10'0 0.0
2017-Nov-10 02:30N 40°38' W 074°10'0 0.0
2017-Nov-10 02:00N 40°38' W 074°10'0 0.0
2017-Nov-10 01:30N 40°38' W 074°10'0 0.0
2017-Nov-10 01:00N 40°38' W 074°10'2 4.5
2017-Nov-10 00:30N 40°37' W 074°12'1 1.1
2017-Nov-10 00:00N 40°37' W 074°12'0 0.0
2017-Nov-09 23:31N 40°37' W 074°12'1 1.9
2017-Nov-09 23:00N 40°37' W 074°12'3 5.3
2017-Nov-09 22:31N 40°39' W 074°09'2 4.9
2017-Nov-09 22:01N 40°39' W 074°06'0 0.0
2017-Nov-09 21:30N 40°39' W 074°06'1 1.3
2017-Nov-09 21:00N 40°39' W 074°07'0 0.3
2017-Nov-09 20:29N 40°39' W 074°07'0 0.0
2017-Nov-09 20:00N 40°39' W 074°07'2 5.0
2017-Nov-09 19:30N 40°38' W 074°10'0 0.1
2017-Nov-09 19:00N 40°38' W 074°10'0 0.0
2017-Nov-09 18:30N 40°38' W 074°10'0 0.0
2017-Nov-09 18:00N 40°38' W 074°10'0 0.0
2017-Nov-09 17:30N 40°38' W 074°10'4 7.5
2017-Nov-09 17:01N 40°39' W 074°05'1 2.6
2017-Nov-09 16:31N 40°38' W 074°04'4 7.0
2017-Nov-09 15:56N 40°39' W 074°09'2 3.6
2017-Nov-09 15:30N 40°40' W 074°08'2 4.3
2017-Nov-09 15:00N 40°38' W 074°10'0 0.2
2017-Nov-09 14:30N 40°38' W 074°10'0 0.5
2017-Nov-09 13:59N 40°38' W 074°09'4 9.0
2017-Nov-09 13:31N 40°40' W 074°04'2 4.4
2017-Nov-09 13:00N 40°38' W 074°04'0 0.1
2017-Nov-09 12:30N 40°38' W 074°04'1 1.8
2017-Nov-09 12:00N 40°37' W 074°03'4 8.2
2017-Nov-09 11:30N 40°39' W 074°08'1 2.4
2017-Nov-09 11:00N 40°38' W 074°10'0 0.0
2017-Nov-09 10:30N 40°38' W 074°10'0 0.0
2017-Nov-09 10:00N 40°38' W 074°10'0 0.0
2017-Nov-09 09:30N 40°38' W 074°10'0 0.0
2017-Nov-09 09:00N 40°38' W 074°10'0 0.0
2017-Nov-09 08:30N 40°38' W 074°10'2 3.8
2017-Nov-09 08:01N 40°38' W 074°12'0 0.0
2017-Nov-09 07:27N 40°38' W 074°12'1 3.3
2017-Nov-09 07:00N 40°39' W 074°11'1 1.5
2017-Nov-09 06:31N 40°38' W 074°10'0 0.0
2017-Nov-09 06:00N 40°38' W 074°10'0 0.0
2017-Nov-09 05:30N 40°38' W 074°10'0 0.0
2017-Nov-09 05:00N 40°38' W 074°10'0 0.0
2017-Nov-09 04:31N 40°38' W 074°10'0 0.0
2017-Nov-09 04:00N 40°38' W 074°10'4 7.4
2017-Nov-09 03:30N 40°39' W 074°05'3 5.9
2017-Nov-09 03:00N 40°39' W 074°09'1 2.6
2017-Nov-09 02:31N 40°40' W 074°09'0 0.1
2017-Nov-09 02:01N 40°40' W 074°09'0 0.1
2017-Nov-09 01:31N 40°40' W 074°09'0 0.1
2017-Nov-09 01:01N 40°40' W 074°09'0 0.2
2017-Nov-09 00:31N 40°40' W 074°09'2 3.1
2017-Nov-09 00:00N 40°38' W 074°10'0 0.0
2017-Nov-08 23:30N 40°38' W 074°10'2 3.1
2017-Nov-08 23:01N 40°39' W 074°08'1 2.0
2017-Nov-08 22:30N 40°39' W 074°09'3 5.2
2017-Nov-08 22:00N 40°42' W 074°08'0 0.8
2017-Nov-08 21:30N 40°42' W 074°09'1 2.8
2017-Nov-08 21:01N 40°41' W 074°08'3 5.1
2017-Nov-08 20:31N 40°38' W 074°10'0 0.0
2017-Nov-08 20:00N 40°38' W 074°10'0 0.0
2017-Nov-08 19:30N 40°38' W 074°10'0 0.0
2017-Nov-08 19:00N 40°38' W 074°10'0 0.0
2017-Nov-08 18:31N 40°38' W 074°10'0 0.0
2017-Nov-08 18:00N 40°38' W 074°10'0 0.0
2017-Nov-08 17:30N 40°38' W 074°10'0 0.0
2017-Nov-08 17:01N 40°38' W 074°10'0 0.0
2017-Nov-08 16:30N 40°38' W 074°10'0 0.0
2017-Nov-08 16:00N 40°38' W 074°10'0 0.0
2017-Nov-08 15:30N 40°38' W 074°10'0 0.0
2017-Nov-08 15:00N 40°38' W 074°10'0 0.0
2017-Nov-08 14:30N 40°38' W 074°10'0 0.0
2017-Nov-08 14:00N 40°38' W 074°10'0 0.0
2017-Nov-08 13:30N 40°38' W 074°10'1 2.2
2017-Nov-08 13:01N 40°39' W 074°08'1 1.2
2017-Nov-08 12:31N 40°39' W 074°09'2 3.3
2017-Nov-08 12:01N 40°41' W 074°08'0 0.1
2017-Nov-08 11:30N 40°41' W 074°08'0 0.4
2017-Nov-08 11:01N 40°40' W 074°08'2 3.5
2017-Nov-08 10:31N 40°39' W 074°08'3 7.0
2017-Nov-08 10:01N 40°39' W 074°04'1 2.8
2017-Nov-08 09:31N 40°37' W 074°03'3 5.4
2017-Nov-08 09:00N 40°39' W 074°06'3 5.4
2017-Nov-08 08:30N 40°38' W 074°10'0 0.0
2017-Nov-08 08:00N 40°38' W 074°10'0 0.0
2017-Nov-08 07:31N 40°38' W 074°10'0 0.0
2017-Nov-08 07:00N 40°38' W 074°10'2 4.2
2017-Nov-08 06:30N 40°40' W 074°08'0 0.2
2017-Nov-08 06:01N 40°40' W 074°08'0 0.1
2017-Nov-08 05:30N 40°40' W 074°08'1 2.3
2017-Nov-08 05:00N 40°39' W 074°09'1 1.8
2017-Nov-08 04:30N 40°38' W 074°10'0 0.1
2017-Nov-08 04:00N 40°39' W 074°10'0 0.1
2017-Nov-08 03:30N 40°38' W 074°10'0 0.0
2017-Nov-08 03:00N 40°38' W 074°10'0 0.0
2017-Nov-08 02:30N 40°38' W 074°10'0 0.0
2017-Nov-08 02:00N 40°38' W 074°10'0 0.0
2017-Nov-08 01:30N 40°38' W 074°10'0 0.0
2017-Nov-08 01:00N 40°38' W 074°10'0 0.0
2017-Nov-08 00:30N 40°38' W 074°10'0 0.0
2017-Nov-08 00:00N 40°38' W 074°10'0 0.0
2017-Nov-07 23:30N 40°38' W 074°10'0 0.0
2017-Nov-07 23:00N 40°38' W 074°10'0 0.0
2017-Nov-07 22:30N 40°38' W 074°10'0 0.0
2017-Nov-07 22:00N 40°38' W 074°10'0 0.0
2017-Nov-07 21:30N 40°38' W 074°10'0 0.0
2017-Nov-07 21:00N 40°38' W 074°10'0 0.0
2017-Nov-07 20:30N 40°38' W 074°10'0 0.0
2017-Nov-07 20:00N 40°38' W 074°10'0 0.0
2017-Nov-07 19:30N 40°38' W 074°10'0 0.0
2017-Nov-07 19:00N 40°38' W 074°10'0 0.0
2017-Nov-07 18:30N 40°38' W 074°10'0 0.0
2017-Nov-07 18:00N 40°38' W 074°10'0 0.0
2017-Nov-07 17:30N 40°38' W 074°10'0 0.0
2017-Nov-07 17:00N 40°38' W 074°10'0 0.0
2017-Nov-07 16:30N 40°38' W 074°10'0 0.0
2017-Nov-07 16:00N 40°38' W 074°10'0 0.0
2017-Nov-07 15:30N 40°38' W 074°10'0 0.0
2017-Nov-07 15:01N 40°38' W 074°10'0 0.0
2017-Nov-07 14:30N 40°38' W 074°10'0 0.0
2017-Nov-07 14:00N 40°38' W 074°10'0 0.0
2017-Nov-07 13:30N 40°38' W 074°10'0 0.0
2017-Nov-07 13:01N 40°38' W 074°10'0 0.0
2017-Nov-07 12:30N 40°38' W 074°10'0 0.0
2017-Nov-07 12:01N 40°38' W 074°10'0 0.0
2017-Nov-07 11:30N 40°38' W 074°10'0 0.0
2017-Nov-07 11:00N 40°38' W 074°10'0 0.0
2017-Nov-07 10:30N 40°38' W 074°10'0 0.0
2017-Nov-07 10:00N 40°38' W 074°10'0 0.0
2017-Nov-07 09:30N 40°38' W 074°10'0 0.0
2017-Nov-07 09:00N 40°38' W 074°10'0 0.0
2017-Nov-07 08:30N 40°38' W 074°10'0 0.0
2017-Nov-07 08:01N 40°38' W 074°10'0 0.0
2017-Nov-07 07:30N 40°38' W 074°10'0 0.0
2017-Nov-07 07:00N 40°38' W 074°10'0 0.0
2017-Nov-07 06:31N 40°38' W 074°10'0 0.0
2017-Nov-07 06:00N 40°38' W 074°10'0 0.0
2017-Nov-07 05:30N 40°38' W 074°10'0 0.0
2017-Nov-07 05:00N 40°38' W 074°10'0 0.0
2017-Nov-07 04:30N 40°38' W 074°10'0 0.0
2017-Nov-07 04:00N 40°38' W 074°10'0 0.0
2017-Nov-07 03:30N 40°38' W 074°10'0 0.0
2017-Nov-07 03:00N 40°38' W 074°10'0 0.0
2017-Nov-07 02:30N 40°38' W 074°10'0 0.0
2017-Nov-07 02:01N 40°38' W 074°10'0 0.0
2017-Nov-07 01:30N 40°38' W 074°10'0 0.0
2017-Nov-07 01:00N 40°38' W 074°10'0 0.0
2017-Nov-07 00:31N 40°38' W 074°10'0 0.0
2017-Nov-07 00:00N 40°38' W 074°10'0 0.0
2017-Nov-06 23:30N 40°38' W 074°10'0 0.0
2017-Nov-06 22:59N 40°38' W 074°10'0 0.0
2017-Nov-06 22:30N 40°38' W 074°10'0 0.0
2017-Nov-06 22:01N 40°38' W 074°10'0 0.0
2017-Nov-06 21:31N 40°38' W 074°10'0 0.0
2017-Nov-06 21:00N 40°38' W 074°10'0 0.0
2017-Nov-06 20:31N 40°38' W 074°10'0 0.0
2017-Nov-06 02:30N 40°38' W 074°10'0 0.0
2017-Nov-06 02:00N 40°38' W 074°10'0 0.0
2017-Nov-06 01:30N 40°38' W 074°10'0 0.0
2017-Nov-06 01:01N 40°38' W 074°10'0 0.0
2017-Nov-06 00:30N 40°38' W 074°10'0 0.0
2017-Nov-06 00:00N 40°38' W 074°10'0 0.0
2017-Nov-05 23:30N 40°38' W 074°10'0 0.0
2017-Nov-05 23:00N 40°38' W 074°10'0 0.0
2017-Nov-05 22:31N 40°38' W 074°10'0 0.0
2017-Nov-05 22:00N 40°38' W 074°10'0 0.0
2017-Nov-05 21:30N 40°38' W 074°10'0 0.0
2017-Nov-05 21:00N 40°38' W 074°10'0 0.0
2017-Nov-05 20:30N 40°38' W 074°10'0 0.0
2017-Nov-05 20:00N 40°38' W 074°10'0 0.0
2017-Nov-05 19:30N 40°38' W 074°10'0 0.0
2017-Nov-05 19:00N 40°38' W 074°10'0 0.0
2017-Nov-05 18:30N 40°38' W 074°10'0 0.0
2017-Nov-05 18:00N 40°38' W 074°10'0 0.0
2017-Nov-05 17:31N 40°38' W 074°10'0 0.0
2017-Nov-05 17:00N 40°38' W 074°10'0 0.0
2017-Nov-05 16:31N 40°38' W 074°10'0 0.0
2017-Nov-05 16:00N 40°38' W 074°10'0 0.0
2017-Nov-05 15:30N 40°38' W 074°10'0 0.0
2017-Nov-05 15:00N 40°38' W 074°10'0 0.0
2017-Nov-05 14:30N 40°38' W 074°10'0 0.0
2017-Nov-05 14:00N 40°38' W 074°10'0 0.0
2017-Nov-05 13:31N 40°38' W 074°10'0 0.0
2017-Nov-05 13:01N 40°38' W 074°10'0 0.0
2017-Nov-05 12:30N 40°38' W 074°10'0 0.0
2017-Nov-05 11:59N 40°38' W 074°10'0 0.0
2017-Nov-05 11:30N 40°38' W 074°10'0 0.0
2017-Nov-05 11:01N 40°38' W 074°10'0 0.0
2017-Nov-05 10:30N 40°38' W 074°10'0 0.0
2017-Nov-05 10:00N 40°38' W 074°10'0 0.0
2017-Nov-05 09:30N 40°38' W 074°10'0 0.0
2017-Nov-05 09:00N 40°38' W 074°10'0 0.0
2017-Nov-05 08:30N 40°38' W 074°10'0 0.0
2017-Nov-05 08:00N 40°38' W 074°10'0 0.0
2017-Nov-05 07:30N 40°38' W 074°10'0 0.0
2017-Nov-05 07:01N 40°38' W 074°10'0 0.0
2017-Nov-05 06:30N 40°38' W 074°10'0 0.0
2017-Nov-05 06:00N 40°38' W 074°10'0 0.0
2017-Nov-05 05:31N 40°38' W 074°10'0 0.0
2017-Nov-05 05:00N 40°38' W 074°10'0 0.0
2017-Nov-05 04:30N 40°38' W 074°10'0 0.0
2017-Nov-05 04:00N 40°38' W 074°10'0 0.0
2017-Nov-05 03:31N 40°38' W 074°10'0 0.0
2017-Nov-05 03:01N 40°38' W 074°10'0 0.0
2017-Nov-05 02:30N 40°38' W 074°10'0 0.0
2017-Nov-05 02:00N 40°38' W 074°10'0 0.0
2017-Nov-05 01:30N 40°38' W 074°10'0 0.0
2017-Nov-05 01:00N 40°38' W 074°10'0 0.0
2017-Nov-05 00:30N 40°38' W 074°10'0 0.0
2017-Nov-05 00:00N 40°38' W 074°10'0 0.0
2017-Nov-04 23:30N 40°38' W 074°10'0 0.0
2017-Nov-04 23:00N 40°38' W 074°10'0 0.0
2017-Nov-04 22:30N 40°38' W 074°10'0 0.0
2017-Nov-04 22:00N 40°38' W 074°10'0 0.0
2017-Nov-04 21:30N 40°38' W 074°10'0 0.0
2017-Nov-04 21:00N 40°38' W 074°10'0 0.0
2017-Nov-04 20:30N 40°38' W 074°10'0 0.0
2017-Nov-04 20:00N 40°38' W 074°10'0 0.0
2017-Nov-04 19:30N 40°38' W 074°10'0 0.0
2017-Nov-04 19:00N 40°38' W 074°10'0 0.0
2017-Nov-04 18:30N 40°38' W 074°10'0 0.0
2017-Nov-04 17:59N 40°38' W 074°10'0 0.0
2017-Nov-04 17:30N 40°38' W 074°10'0 0.0
2017-Nov-04 17:00N 40°38' W 074°10'0 0.0
2017-Nov-04 16:30N 40°38' W 074°10'0 0.0
2017-Nov-04 16:00N 40°38' W 074°10'0 0.0
2017-Nov-04 15:30N 40°38' W 074°10'0 0.0
2017-Nov-04 15:00N 40°38' W 074°10'0 0.0
2017-Nov-04 14:30N 40°38' W 074°10'0 0.0
2017-Nov-04 14:00N 40°38' W 074°10'0 0.0
2017-Nov-04 13:30N 40°38' W 074°10'0 0.0
2017-Nov-04 13:00N 40°38' W 074°10'0 0.0
2017-Nov-04 12:30N 40°38' W 074°10'0 0.0
2017-Nov-04 12:00N 40°38' W 074°10'0 0.0
2017-Nov-04 11:30N 40°38' W 074°10'0 0.0
2017-Nov-04 11:00N 40°38' W 074°10'0 0.0
2017-Nov-04 10:31N 40°38' W 074°10'0 0.0
2017-Nov-04 10:00N 40°38' W 074°10'0 0.0
2017-Nov-04 09:30N 40°38' W 074°10'0 0.0
2017-Nov-04 09:01N 40°38' W 074°10'0 0.0
2017-Nov-04 08:30N 40°38' W 074°10'0 0.0
2017-Nov-04 08:00N 40°38' W 074°10'0 0.0
2017-Nov-04 07:30N 40°38' W 074°10'0 0.0
2017-Nov-04 07:00N 40°38' W 074°10'0 0.0
2017-Nov-04 06:31N 40°38' W 074°10'0 0.0
2017-Nov-04 06:00N 40°38' W 074°10'0 0.0
2017-Nov-04 05:30N 40°38' W 074°10'0 0.0
2017-Nov-04 05:00N 40°38' W 074°10'0 0.0
2017-Nov-04 04:29N 40°38' W 074°10'0 0.0
2017-Nov-04 04:00N 40°38' W 074°10'0 0.0
2017-Nov-04 03:30N 40°38' W 074°10'0 0.0
2017-Nov-04 03:00N 40°38' W 074°10'0 0.0
2017-Nov-04 02:31N 40°38' W 074°10'0 0.0
2017-Nov-04 02:00N 40°38' W 074°10'0 0.0
2017-Nov-04 01:31N 40°38' W 074°10'0 0.0
2017-Nov-04 01:01N 40°38' W 074°10'0 0.0
2017-Nov-04 00:30N 40°38' W 074°10'0 0.0
2017-Nov-04 00:00N 40°38' W 074°10'0 0.0
2017-Nov-03 23:30N 40°38' W 074°10'0 0.0
2017-Nov-03 23:01N 40°38' W 074°10'0 0.0
2017-Nov-03 22:30N 40°38' W 074°10'0 0.0
2017-Nov-03 22:00N 40°38' W 074°10'0 0.0
2017-Nov-03 21:30N 40°38' W 074°10'0 0.0
2017-Nov-03 21:00N 40°38' W 074°10'0 0.0
2017-Nov-03 20:30N 40°38' W 074°10'0 0.0
2017-Nov-03 20:00N 40°38' W 074°10'0 0.0
2017-Nov-03 19:29N 40°38' W 074°10'0 0.0
2017-Nov-03 19:00N 40°38' W 074°10'0 0.0
2017-Nov-03 18:30N 40°38' W 074°10'0 0.0
2017-Nov-03 18:00N 40°38' W 074°10'0 0.0
2017-Nov-03 17:30N 40°38' W 074°10'0 0.0
2017-Nov-03 17:00N 40°38' W 074°10'0 0.0
2017-Nov-03 16:31N 40°38' W 074°10'0 0.0
2017-Nov-03 16:00N 40°38' W 074°10'0 0.0
2017-Nov-03 15:30N 40°38' W 074°10'0 0.0
2017-Nov-03 15:00N 40°38' W 074°10'0 0.0
2017-Nov-03 14:30N 40°38' W 074°10'0 0.0
2017-Nov-03 14:01N 40°38' W 074°10'0 0.0
2017-Nov-03 13:30N 40°38' W 074°10'0 0.0
2017-Nov-03 13:00N 40°38' W 074°10'0 0.0
2017-Nov-03 12:30N 40°38' W 074°10'0 0.0
2017-Nov-03 12:00N 40°38' W 074°10'0 0.0
2017-Nov-03 11:30N 40°38' W 074°10'0 0.0
2017-Nov-03 11:00N 40°38' W 074°10'0 0.0
2017-Nov-03 10:30N 40°38' W 074°10'0 0.0
2017-Nov-03 10:00N 40°38' W 074°10'0 0.0
2017-Nov-03 09:30N 40°38' W 074°10'0 0.0
2017-Nov-03 09:00N 40°38' W 074°10'0 0.0
2017-Nov-03 08:30N 40°38' W 074°10'0 0.0
2017-Nov-03 08:00N 40°38' W 074°10'0 0.0
2017-Nov-03 07:30N 40°38' W 074°10'0 0.0
2017-Nov-03 07:00N 40°38' W 074°10'0 0.0
2017-Nov-03 06:30N 40°38' W 074°10'0 0.0
2017-Nov-03 06:00N 40°38' W 074°10'0 0.0
2017-Nov-03 05:30N 40°38' W 074°10'0 0.0
2017-Nov-03 05:00N 40°38' W 074°10'0 0.0
2017-Nov-03 04:30N 40°38' W 074°10'0 0.0
2017-Nov-03 04:00N 40°38' W 074°10'0 0.0
2017-Nov-03 03:30N 40°38' W 074°10'0 0.0
2017-Nov-03 03:00N 40°38' W 074°10'0 0.0
2017-Nov-03 02:31N 40°38' W 074°10'0 0.0
2017-Nov-03 02:00N 40°38' W 074°10'0 0.0
2017-Nov-03 01:31N 40°38' W 074°10'0 0.0
2017-Nov-03 01:00N 40°38' W 074°10'0 0.0
2017-Nov-03 00:30N 40°38' W 074°10'0 0.0
2017-Nov-03 00:00N 40°38' W 074°10'0 0.0
2017-Nov-02 23:30N 40°38' W 074°10'0 0.0
2017-Nov-02 23:00N 40°38' W 074°10'0 0.0
2017-Nov-02 22:30N 40°38' W 074°10'0 0.0
2017-Nov-02 22:00N 40°38' W 074°10'0 0.0
2017-Nov-02 21:30N 40°38' W 074°10'0 0.0
2017-Nov-02 21:00N 40°38' W 074°10'0 0.0
2017-Nov-02 20:31N 40°38' W 074°10'0 0.0
2017-Nov-02 20:00N 40°38' W 074°10'0 0.0
2017-Nov-02 19:30N 40°38' W 074°10'0 0.0
2017-Nov-02 19:00N 40°38' W 074°10'0 0.0
2017-Nov-02 18:30N 40°38' W 074°10'0 0.0
2017-Nov-02 18:00N 40°38' W 074°10'0 0.0
2017-Nov-02 17:30N 40°38' W 074°10'0 0.0
2017-Nov-02 17:00N 40°38' W 074°10'0 0.0
2017-Nov-02 16:31N 40°38' W 074°10'0 0.0
2017-Nov-02 16:00N 40°38' W 074°10'0 0.0
2017-Nov-02 15:30N 40°38' W 074°10'0 0.0
2017-Nov-02 15:01N 40°38' W 074°10'0 0.0
2017-Nov-02 14:31N 40°38' W 074°10'0 0.0
2017-Nov-02 14:00N 40°38' W 074°10'0 0.0
2017-Nov-02 13:30N 40°38' W 074°10'0 0.0
2017-Nov-02 13:01N 40°38' W 074°10'0 0.0
2017-Nov-02 12:30N 40°38' W 074°10'0 0.0
2017-Nov-02 12:01N 40°38' W 074°10'0 0.0
2017-Nov-02 11:30N 40°38' W 074°10'0 0.0
2017-Nov-02 11:00N 40°38' W 074°10'0 0.0
2017-Nov-02 10:30N 40°38' W 074°10'0 0.0
2017-Nov-02 10:00N 40°38' W 074°10'0 0.0
2017-Nov-02 09:30N 40°38' W 074°10'0 0.0
2017-Nov-02 09:01N 40°38' W 074°10'0 0.0
2017-Nov-02 08:30N 40°38' W 074°10'0 0.0
2017-Nov-02 08:00N 40°38' W 074°10'0 0.0
2017-Nov-02 07:30N 40°38' W 074°10'0 0.0
2017-Nov-02 07:00N 40°38' W 074°10'0 0.0
2017-Nov-02 06:30N 40°38' W 074°10'0 0.0
2017-Nov-02 06:00N 40°38' W 074°10'0 0.0
2017-Nov-02 05:30N 40°38' W 074°10'0 0.0
2017-Nov-02 04:59N 40°38' W 074°10'0 0.0
2017-Nov-02 04:30N 40°38' W 074°10'0 0.0
2017-Nov-02 04:00N 40°38' W 074°10'0 0.0
2017-Nov-02 03:30N 40°38' W 074°10'0 0.0
2017-Nov-02 03:00N 40°38' W 074°10'0 0.0
2017-Nov-02 02:31N 40°38' W 074°10'0 0.0
2017-Nov-02 02:00N 40°38' W 074°10'0 0.0
2017-Nov-02 01:30N 40°38' W 074°10'0 0.0
2017-Nov-02 01:00N 40°38' W 074°10'0 0.0
2017-Nov-02 00:30N 40°38' W 074°10'0 0.0
2017-Nov-02 00:00N 40°38' W 074°10'0 0.0
2017-Nov-01 23:30N 40°38' W 074°10'0 0.0
2017-Nov-01 23:00N 40°38' W 074°10'0 0.0
2017-Nov-01 22:31N 40°38' W 074°10'0 0.0
2017-Nov-01 22:00N 40°38' W 074°10'0 0.0
2017-Nov-01 21:31N 40°38' W 074°10'0 0.0
2017-Nov-01 21:00N 40°38' W 074°10'0 0.0
2017-Nov-01 20:30N 40°38' W 074°10'0 0.0
2017-Nov-01 20:00N 40°38' W 074°10'0 0.0
2017-Nov-01 19:30N 40°38' W 074°10'0 0.0
2017-Nov-01 19:01N 40°38' W 074°10'0 0.0
2017-Nov-01 18:30N 40°38' W 074°10'0 0.0
2017-Nov-01 01:59N 40°38' W 074°10'0 0.0
2017-Nov-01 01:29N 40°38' W 074°10'0 0.0
2017-Nov-01 01:00N 40°38' W 074°10'0 0.0
2017-Nov-01 00:31N 40°38' W 074°10'0 0.0
2017-Nov-01 00:00N 40°38' W 074°10'0 0.0
2017-Oct-31 23:30N 40°38' W 074°10'0 0.0
2017-Oct-31 23:00N 40°38' W 074°10'0 0.0
2017-Oct-31 22:31N 40°38' W 074°10'0 0.0
2017-Oct-31 22:00N 40°38' W 074°10'0 0.0
2017-Oct-31 21:31N 40°38' W 074°10'0 0.0
2017-Oct-31 21:01N 40°38' W 074°10'0 0.0
2017-Oct-31 20:31N 40°38' W 074°10'0 0.0
2017-Oct-31 20:00N 40°38' W 074°10'0 0.0
2017-Oct-31 19:31N 40°38' W 074°10'0 0.0
2017-Oct-31 19:01N 40°38' W 074°10'0 0.0
2017-Oct-31 18:31N 40°38' W 074°10'  

Dump ship's entire track history